createdAt,value
2023-07-15T00:01:38.009Z,8.55
2023-07-15T00:04:14.740Z,7.22
2023-07-15T00:06:42.763Z,6.95
2023-07-15T00:09:10.649Z,7.30
2023-07-15T00:11:45.224Z,7.38
2023-07-15T00:14:23.276Z,6.68
2023-07-15T00:16:51.807Z,9.45
2023-07-15T00:19:20.409Z,7.18
2023-07-15T00:21:49.451Z,6.75
2023-07-15T00:24:17.037Z,8.00
2023-07-15T00:26:48.276Z,8.13
2023-07-15T00:29:17.296Z,8.60
2023-07-15T00:31:45.231Z,8.60
2023-07-15T00:34:14.234Z,6.80
2023-07-15T00:36:42.234Z,8.40
2023-07-15T00:39:10.512Z,11.30
2023-07-15T00:41:38.200Z,9.25
2023-07-15T00:44:07.575Z,8.30
2023-07-15T00:47:23.564Z,8.75
2023-07-15T00:49:51.898Z,8.32
2023-07-15T00:52:22.157Z,7.05
2023-07-15T00:54:55.738Z,9.32
2023-07-15T00:57:26.729Z,8.20
2023-07-15T00:59:59.485Z,8.75
2023-07-15T01:02:27.758Z,8.02
2023-07-15T01:04:56.099Z,7.72
2023-07-15T01:07:23.287Z,8.73
2023-07-15T01:09:52.003Z,11.20
2023-07-15T01:12:19.554Z,8.15
2023-07-15T01:14:46.914Z,7.57
2023-07-15T01:17:14.225Z,8.70
2023-07-15T01:19:41.502Z,8.07
2023-07-15T01:22:08.832Z,7.47
2023-07-15T01:24:37.149Z,7.63
2023-07-15T01:27:09.320Z,8.10
2023-07-15T01:29:37.096Z,8.95
2023-07-15T01:32:04.889Z,7.70
2023-07-15T01:34:32.394Z,8.43
2023-07-15T01:37:01.104Z,7.40
2023-07-15T01:39:28.478Z,8.05
2023-07-15T01:41:56.712Z,7.05
2023-07-15T01:44:26.286Z,9.70
2023-07-15T01:46:53.604Z,8.20
2023-07-15T01:49:21.058Z,9.27
2023-07-15T01:51:48.314Z,8.93
2023-07-15T01:54:16.294Z,7.65
2023-07-15T01:56:43.745Z,6.80
2023-07-15T01:59:11.905Z,9.13
2023-07-15T02:01:42.299Z,7.78
2023-07-15T02:04:10.034Z,6.68
2023-07-15T02:06:37.543Z,8.77
2023-07-15T02:11:36.817Z,6.22
2023-07-15T02:14:04.051Z,8.85
2023-07-15T02:16:31.477Z,7.30
2023-07-15T02:19:00.153Z,8.40
2023-07-15T02:21:27.499Z,8.55
2023-07-15T02:23:54.913Z,7.55
2023-07-15T02:26:22.330Z,7.28
2023-07-15T02:28:49.537Z,8.10
2023-07-15T02:31:17.072Z,6.70
2023-07-15T02:33:44.330Z,7.68
2023-07-15T02:36:11.796Z,7.68
2023-07-15T02:38:39.313Z,7.32
2023-07-15T02:41:06.833Z,7.18
2023-07-15T02:43:34.127Z,8.20
2023-07-15T02:46:01.795Z,7.82
2023-07-15T02:48:29.130Z,6.65
2023-07-15T02:50:56.870Z,8.55
2023-07-15T02:53:24.369Z,7.05
2023-07-15T02:55:52.205Z,6.63
2023-07-15T02:58:20.037Z,9.88
2023-07-15T03:00:49.305Z,8.27
2023-07-15T03:03:16.497Z,8.60
2023-07-15T03:05:48.848Z,9.18
2023-07-15T03:08:16.476Z,8.98
2023-07-15T03:10:46.667Z,7.85
2023-07-15T03:13:14.173Z,9.90
2023-07-15T03:15:43.027Z,9.27
2023-07-15T03:18:10.440Z,9.55
2023-07-15T03:20:37.752Z,9.20
2023-07-15T03:23:05.441Z,14.98
2023-07-15T03:25:33.159Z,10.15
2023-07-15T03:28:00.531Z,9.25
2023-07-15T03:30:27.689Z,9.93
2023-07-15T03:32:57.665Z,10.32
2023-07-15T03:35:25.266Z,8.45
2023-07-15T03:37:52.595Z,8.63
2023-07-15T03:40:20.086Z,10.43
2023-07-15T03:42:47.428Z,9.68
2023-07-15T03:45:14.822Z,10.57
2023-07-15T03:47:42.114Z,10.88
2023-07-15T03:50:10.894Z,12.27
2023-07-15T03:52:38.679Z,9.15
2023-07-15T03:55:07.160Z,8.52
2023-07-15T03:57:34.996Z,8.18
2023-07-15T04:00:07.287Z,10.98
2023-07-15T04:02:40.706Z,9.57
2023-07-15T04:05:08.423Z,15.38
2023-07-15T04:07:35.816Z,9.75
2023-07-15T04:10:03.741Z,10.77
2023-07-15T04:12:31.045Z,10.48
2023-07-15T04:14:58.202Z,7.97
2023-07-15T04:17:25.450Z,10.77
2023-07-15T04:19:52.671Z,8.45
2023-07-15T04:22:19.938Z,9.13
2023-07-15T04:24:47.194Z,9.45
2023-07-15T04:27:14.364Z,10.38
2023-07-15T04:29:41.560Z,10.20
2023-07-15T04:32:09.397Z,9.30
2023-07-15T04:34:36.602Z,11.13
2023-07-15T04:37:04.158Z,9.10
2023-07-15T04:39:31.419Z,10.48
2023-07-15T04:41:58.598Z,10.00
2023-07-15T04:44:25.946Z,10.52
2023-07-15T04:46:53.212Z,8.20
2023-07-15T04:49:20.448Z,9.20
2023-07-15T04:51:47.646Z,8.27
2023-07-15T04:54:14.823Z,12.45
2023-07-15T04:56:43.035Z,8.02
2023-07-15T04:59:10.300Z,8.05
2023-07-15T05:01:37.629Z,9.82
2023-07-15T05:04:05.346Z,8.95
2023-07-15T05:06:32.847Z,9.82
2023-07-15T05:09:00.428Z,10.30
2023-07-15T05:11:27.920Z,7.70
2023-07-15T05:13:55.304Z,11.15
2023-07-15T05:16:22.838Z,8.25
2023-07-15T05:18:50.142Z,9.15
2023-07-15T05:21:18.008Z,10.43
2023-07-15T05:23:45.465Z,10.02
2023-07-15T05:26:12.688Z,6.50
2023-07-15T05:28:39.953Z,10.00
2023-07-15T05:31:07.204Z,8.00
2023-07-15T05:33:34.564Z,8.95
2023-07-15T05:36:02.316Z,7.88
2023-07-15T05:38:29.510Z,6.15
2023-07-15T05:40:56.984Z,8.25
2023-07-15T05:43:24.289Z,8.35
2023-07-15T05:45:51.561Z,7.45
2023-07-15T05:48:18.967Z,9.38
2023-07-15T05:50:47.218Z,10.00
2023-07-15T05:53:14.439Z,10.30
2023-07-15T05:55:41.861Z,10.73
2023-07-15T05:58:11.192Z,9.77
2023-07-15T06:00:42.222Z,8.93
2023-07-15T06:03:10.220Z,9.77
2023-07-15T06:05:38.007Z,9.73
2023-07-15T06:08:05.528Z,12.18
2023-07-15T06:10:32.802Z,10.05
2023-07-15T06:13:00.018Z,11.65
2023-07-15T06:15:27.260Z,13.27
2023-07-15T06:17:57.073Z,10.63
2023-07-15T06:20:24.741Z,10.55
2023-07-15T06:22:52.087Z,14.95
2023-07-15T06:25:19.356Z,9.95
2023-07-15T06:27:46.723Z,10.13
2023-07-15T06:30:14.245Z,11.27
2023-07-15T06:32:41.723Z,11.07
2023-07-15T06:35:09.471Z,9.13
2023-07-15T06:37:37.377Z,10.35
2023-07-15T06:40:06.372Z,10.20
2023-07-15T06:42:33.860Z,10.30
2023-07-15T06:45:01.124Z,10.52
2023-07-15T06:47:28.552Z,8.40
2023-07-15T06:49:55.741Z,13.02
2023-07-15T06:52:23.068Z,10.48
2023-07-15T06:54:53.430Z,14.63
2023-07-15T06:57:21.077Z,10.70
2023-07-15T06:59:48.776Z,13.95
2023-07-15T07:02:16.475Z,13.10
2023-07-15T07:04:43.811Z,14.63
2023-07-15T07:07:11.008Z,13.00
2023-07-15T07:09:38.180Z,11.30
2023-07-15T07:12:05.983Z,12.18
2023-07-15T07:14:34.932Z,14.52
2023-07-15T07:17:02.655Z,13.68
2023-07-15T07:19:29.848Z,15.95
2023-07-15T07:21:57.117Z,13.10
2023-07-15T07:24:24.353Z,13.35
2023-07-15T07:26:52.277Z,11.80
2023-07-15T07:31:46.859Z,12.85
2023-07-15T07:34:14.198Z,11.05
2023-07-15T07:36:41.373Z,11.50
2023-07-15T07:39:08.655Z,11.68
2023-07-15T07:41:35.818Z,12.57
2023-07-15T07:44:03.431Z,14.60
2023-07-15T07:46:31.721Z,13.02
2023-07-15T07:48:59.006Z,11.68
2023-07-15T07:51:26.222Z,10.85
2023-07-15T07:53:53.487Z,15.48
2023-07-15T07:56:20.748Z,13.15
2023-07-15T07:58:47.999Z,13.90
2023-07-15T08:01:16.296Z,11.90
2023-07-15T08:03:43.888Z,13.00
2023-07-15T08:06:13.022Z,12.10
2023-07-15T08:08:40.240Z,13.00
2023-07-15T08:11:07.486Z,16.75
2023-07-15T08:13:34.885Z,13.20
2023-07-15T08:16:02.185Z,17.13
2023-07-15T08:18:29.507Z,11.65
2023-07-15T08:20:56.810Z,15.00
2023-07-15T08:23:23.991Z,13.55
2023-07-15T08:25:51.212Z,12.50
2023-07-15T08:28:18.387Z,15.30
2023-07-15T08:30:45.652Z,13.25
2023-07-15T08:33:12.887Z,17.23
2023-07-15T08:35:41.399Z,11.60
2023-07-15T08:38:08.584Z,12.43
2023-07-15T08:40:36.311Z,14.60
2023-07-15T08:43:03.737Z,13.95
2023-07-15T08:45:36.626Z,12.98
2023-07-15T08:48:04.410Z,13.13
2023-07-15T08:53:04.517Z,10.90
2023-07-15T08:55:32.398Z,12.27
2023-07-15T08:58:01.024Z,12.25
2023-07-15T09:00:28.600Z,11.18
2023-07-15T09:02:55.898Z,9.13
2023-07-15T09:05:23.219Z,11.40
2023-07-15T09:07:59.160Z,9.05
2023-07-15T09:10:29.810Z,13.70
2023-07-15T09:12:57.570Z,10.23
2023-07-15T09:15:25.084Z,11.48
2023-07-15T09:18:00.502Z,13.48
2023-07-15T09:20:28.499Z,10.80
2023-07-15T09:23:01.880Z,10.27
2023-07-15T09:25:29.188Z,12.02
2023-07-15T09:27:56.902Z,13.75
2023-07-15T09:30:24.290Z,11.27
2023-07-15T09:32:51.666Z,9.25
2023-07-15T09:35:21.903Z,14.48
2023-07-15T09:37:49.855Z,14.18
2023-07-15T09:40:17.437Z,13.43
2023-07-15T09:42:56.813Z,12.45
2023-07-15T09:45:39.618Z,14.07
2023-07-15T09:48:11.960Z,13.93
2023-07-15T09:50:42.688Z,10.77
2023-07-15T09:53:11.367Z,9.23
2023-07-15T09:55:44.171Z,11.32
2023-07-15T09:58:25.814Z,12.20
2023-07-15T10:01:11.110Z,11.32
2023-07-15T10:04:04.857Z,11.60
2023-07-15T10:06:32.494Z,8.93
2023-07-15T10:11:31.057Z,12.13
2023-07-15T10:13:59.239Z,10.70
2023-07-15T10:16:26.879Z,11.77
2023-07-15T10:18:56.818Z,11.35
2023-07-15T10:21:24.174Z,12.15
2023-07-15T10:24:12.157Z,11.07
2023-07-15T10:26:50.135Z,10.60
2023-07-15T10:29:17.321Z,13.75
2023-07-15T10:32:22.969Z,10.93
2023-07-15T10:34:53.546Z,10.23
2023-07-15T10:37:21.294Z,8.85
2023-07-15T10:42:18.874Z,11.18
2023-07-15T10:44:55.161Z,12.15
2023-07-15T10:47:23.252Z,10.60
2023-07-15T10:49:52.970Z,9.40
2023-07-15T10:52:22.372Z,10.55
2023-07-15T10:54:49.746Z,8.65
2023-07-15T10:57:18.051Z,10.70
2023-07-15T10:59:47.312Z,9.68
2023-07-15T11:02:14.929Z,13.73
2023-07-15T11:04:42.528Z,10.32
2023-07-15T11:07:12.000Z,11.25
2023-07-15T11:09:41.471Z,8.32
2023-07-15T11:12:12.421Z,13.05
2023-07-15T11:14:46.259Z,14.20
2023-07-15T11:19:47.122Z,10.98
2023-07-15T11:22:16.237Z,11.95
2023-07-15T11:24:47.074Z,14.55
2023-07-15T11:27:14.355Z,11.45
2023-07-15T11:29:41.531Z,12.52
2023-07-15T11:32:08.951Z,12.23
2023-07-15T11:34:36.839Z,13.52
2023-07-15T11:37:09.370Z,15.02
2023-07-15T11:39:42.252Z,15.55
2023-07-15T11:42:10.411Z,11.77
2023-07-15T11:44:37.785Z,11.38
2023-07-15T11:47:06.910Z,11.68
2023-07-15T11:49:45.765Z,13.07
2023-07-15T11:52:22.405Z,10.70
2023-07-15T11:54:49.726Z,12.27
2023-07-15T11:57:27.774Z,9.80
2023-07-15T11:59:55.239Z,11.77
2023-07-15T12:04:51.568Z,12.05
2023-07-15T12:07:22.339Z,9.52
2023-07-15T12:10:09.984Z,10.10
2023-07-15T12:12:37.213Z,8.38
2023-07-15T12:15:04.958Z,8.65
2023-07-15T12:17:32.211Z,10.27
2023-07-15T12:19:59.452Z,8.23
2023-07-15T12:22:26.643Z,9.27
2023-07-15T12:24:53.885Z,13.13
2023-07-15T12:27:21.055Z,11.50
2023-07-15T12:29:48.258Z,11.45
2023-07-15T12:32:15.444Z,8.25
2023-07-15T12:34:42.773Z,8.00
2023-07-15T12:37:10.996Z,8.43
2023-07-15T12:39:38.186Z,10.05
2023-07-15T12:42:05.846Z,10.18
2023-07-15T12:44:33.060Z,7.75
2023-07-15T12:47:00.321Z,8.23
2023-07-15T12:49:27.679Z,8.57
2023-07-15T12:51:54.886Z,8.80
2023-07-15T12:54:22.109Z,8.60
2023-07-15T12:56:49.275Z,10.10
2023-07-15T12:59:16.515Z,9.38
2023-07-15T13:01:43.715Z,7.05
2023-07-15T13:04:11.017Z,8.30
2023-07-15T13:06:38.313Z,9.60
2023-07-15T13:09:05.899Z,10.50
2023-07-15T13:11:33.532Z,7.63
2023-07-15T13:14:00.790Z,8.93
2023-07-15T13:16:28.069Z,8.93
2023-07-15T13:18:55.317Z,7.30
2023-07-15T13:21:22.586Z,9.27
2023-07-15T13:23:49.965Z,7.50
2023-07-15T13:28:44.559Z,9.38
2023-07-15T13:31:11.841Z,6.00
2023-07-15T13:33:41.004Z,7.80
2023-07-15T13:36:09.509Z,6.13
2023-07-15T13:38:36.697Z,6.93
2023-07-15T13:41:03.944Z,9.38
2023-07-15T13:43:31.160Z,9.52
2023-07-15T13:45:58.501Z,7.25
2023-07-15T13:48:25.715Z,7.03
2023-07-15T13:50:52.928Z,8.43
2023-07-15T13:53:20.274Z,7.25
2023-07-15T13:55:47.496Z,9.90
2023-07-15T13:58:14.754Z,9.43
2023-07-15T14:00:42.010Z,8.15
2023-07-15T14:03:09.247Z,8.57
2023-07-15T14:05:36.555Z,7.47
2023-07-15T14:08:04.030Z,7.65
2023-07-15T14:12:58.273Z,9.00
2023-07-15T14:15:25.484Z,7.22
2023-07-15T14:17:52.702Z,9.82
2023-07-15T14:20:20.122Z,7.28
2023-07-15T14:22:50.108Z,7.50
2023-07-15T14:25:19.034Z,8.52
2023-07-15T14:27:46.786Z,11.75
2023-07-15T14:30:14.055Z,9.63
2023-07-15T14:32:41.389Z,7.05
2023-07-15T14:35:09.228Z,8.85
2023-07-15T14:37:36.479Z,7.65
2023-07-15T14:40:04.378Z,7.10
2023-07-15T14:42:34.601Z,8.68
2023-07-15T14:45:01.782Z,8.90
2023-07-15T14:49:56.360Z,7.07
2023-07-15T14:52:23.542Z,7.82
2023-07-15T14:54:50.906Z,7.43
2023-07-15T14:57:18.206Z,7.82
2023-07-15T14:59:45.499Z,7.57
2023-07-15T15:02:12.684Z,9.57
2023-07-15T15:04:39.892Z,8.57
2023-07-15T15:07:07.207Z,8.18
2023-07-15T15:09:34.491Z,7.20
2023-07-15T15:12:06.535Z,8.85
2023-07-15T15:14:36.817Z,7.63
2023-07-15T15:17:05.230Z,11.82
2023-07-15T15:19:32.522Z,8.90
2023-07-15T15:21:59.771Z,6.90
2023-07-15T15:24:28.830Z,7.18
2023-07-15T15:26:58.687Z,8.57
2023-07-15T15:29:26.942Z,8.15
2023-07-15T15:31:54.264Z,6.78
2023-07-15T15:34:21.541Z,7.68
2023-07-15T15:39:16.028Z,9.15
2023-07-15T15:41:43.237Z,7.88
2023-07-15T15:44:10.420Z,8.32
2023-07-15T15:46:37.719Z,10.18
2023-07-15T15:51:32.242Z,8.82
2023-07-15T15:54:02.496Z,7.05
2023-07-15T15:56:33.398Z,6.70
2023-07-15T15:59:00.772Z,7.35
2023-07-15T16:03:55.606Z,7.35
2023-07-15T16:06:22.859Z,9.18
2023-07-15T16:08:52.049Z,8.07
2023-07-15T16:11:19.844Z,7.63
2023-07-15T16:13:47.286Z,7.55
2023-07-15T16:16:14.599Z,7.07
2023-07-15T16:18:41.847Z,12.32
2023-07-15T16:21:09.079Z,6.53
2023-07-15T16:23:36.448Z,8.38
2023-07-15T16:26:03.964Z,8.57
2023-07-15T16:28:31.204Z,7.90
2023-07-15T16:30:58.417Z,7.03
2023-07-15T16:33:25.652Z,7.63
2023-07-15T16:35:53.193Z,7.97
2023-07-15T16:38:20.616Z,9.20
2023-07-15T16:43:14.946Z,6.75
2023-07-15T16:45:42.188Z,6.55
2023-07-15T16:48:09.488Z,8.23
2023-07-15T16:50:36.970Z,8.40
2023-07-15T16:55:32.989Z,8.13
2023-07-15T16:58:00.213Z,9.07
2023-07-15T17:00:27.569Z,9.98
2023-07-15T17:02:54.877Z,7.05
2023-07-15T17:07:49.288Z,7.70
2023-07-15T17:10:16.501Z,7.53
2023-07-15T17:12:46.255Z,7.43
2023-07-15T17:15:13.499Z,7.30
2023-07-15T17:17:40.815Z,6.55
2023-07-15T17:20:09.373Z,9.98
2023-07-15T17:22:36.756Z,6.90
2023-07-15T17:27:31.735Z,13.35
2023-07-15T17:29:58.967Z,11.45
2023-07-15T17:32:26.724Z,10.88
2023-07-15T17:34:53.930Z,12.18
2023-07-15T17:37:24.455Z,14.80
2023-07-15T17:39:51.898Z,15.45
2023-07-15T17:42:19.063Z,13.07
2023-07-15T17:44:46.365Z,11.40
2023-07-15T17:47:13.844Z,13.05
2023-07-15T17:49:41.050Z,14.73
2023-07-15T17:52:10.397Z,15.02
2023-07-15T17:54:37.725Z,11.38
2023-07-15T17:57:05.369Z,11.18
2023-07-15T17:59:32.636Z,8.20
2023-07-15T18:01:59.946Z,8.25
2023-07-15T18:04:27.137Z,9.90
2023-07-15T18:06:54.388Z,7.95
2023-07-15T18:09:21.617Z,16.35
2023-07-15T18:11:49.021Z,14.15
2023-07-15T18:14:16.279Z,14.68
2023-07-15T18:16:43.481Z,10.57
2023-07-15T18:19:10.701Z,10.35
2023-07-15T18:21:37.982Z,10.20
2023-07-15T18:24:05.509Z,8.93
2023-07-15T18:26:32.720Z,10.38
2023-07-15T18:28:59.903Z,11.30
2023-07-15T18:31:27.169Z,8.55
2023-07-15T18:34:00.123Z,10.48
2023-07-15T18:36:32.865Z,14.35
2023-07-15T18:39:00.052Z,9.48
2023-07-15T18:41:27.288Z,9.18
2023-07-15T18:43:54.485Z,10.57
2023-07-15T18:46:21.765Z,8.93
2023-07-15T18:48:49.033Z,10.52
2023-07-15T18:51:16.687Z,9.05
2023-07-15T18:53:44.110Z,8.60
2023-07-15T18:56:11.433Z,8.18
2023-07-15T18:58:38.604Z,10.35
2023-07-15T19:01:05.832Z,10.57
2023-07-15T19:03:33.407Z,8.02
2023-07-15T19:06:00.704Z,9.10
2023-07-15T19:08:27.881Z,11.23
2023-07-15T19:10:55.133Z,8.85
2023-07-15T19:13:22.383Z,9.30
2023-07-15T19:15:49.842Z,12.18
2023-07-15T19:18:17.059Z,10.00
2023-07-15T19:20:44.301Z,10.85
2023-07-15T19:23:11.577Z,8.98
2023-07-15T19:25:38.756Z,9.88
2023-07-15T19:28:05.984Z,9.98
2023-07-15T19:30:33.282Z,9.90
2023-07-15T19:33:00.558Z,8.25
2023-07-15T19:35:27.754Z,10.00
2023-07-15T19:37:54.988Z,9.85
2023-07-15T19:40:22.281Z,8.55
2023-07-15T19:42:49.589Z,9.23
2023-07-15T19:45:16.907Z,11.55
2023-07-15T19:47:44.160Z,12.20
2023-07-15T19:50:11.366Z,8.93
2023-07-15T19:52:38.535Z,11.00
2023-07-15T19:55:06.477Z,9.95
2023-07-15T19:57:33.681Z,11.30
2023-07-15T20:00:01.056Z,10.82
2023-07-15T20:02:28.411Z,9.77
2023-07-15T20:04:55.640Z,13.25
2023-07-15T20:07:22.889Z,10.95
2023-07-15T20:09:50.102Z,12.25
2023-07-15T20:12:17.383Z,10.68
2023-07-15T20:14:44.606Z,10.50
2023-07-15T20:17:12.482Z,12.10
2023-07-15T20:19:40.024Z,11.25
2023-07-15T20:22:07.281Z,8.85
2023-07-15T20:24:34.545Z,10.70
2023-07-15T20:27:01.873Z,9.95
2023-07-15T20:29:29.048Z,13.95
2023-07-15T20:31:56.333Z,12.13
2023-07-15T20:34:23.550Z,8.65
2023-07-15T20:36:51.406Z,12.73
2023-07-15T20:39:18.921Z,10.27
2023-07-15T20:41:46.632Z,10.30
2023-07-15T20:44:13.805Z,11.27
2023-07-15T20:46:41.733Z,11.52
2023-07-15T20:49:09.083Z,10.60
2023-07-15T20:51:37.117Z,12.60
2023-07-15T20:54:04.524Z,12.98
2023-07-15T20:56:31.829Z,15.90
2023-07-15T20:58:59.042Z,14.35
2023-07-15T21:01:26.256Z,12.48
2023-07-15T21:03:53.977Z,11.90
2023-07-15T21:06:21.174Z,11.90
2023-07-15T21:08:48.413Z,11.95
2023-07-15T21:11:18.881Z,12.98
2023-07-15T21:13:46.163Z,10.32
2023-07-15T21:16:13.635Z,9.38
2023-07-15T21:18:41.098Z,10.88
2023-07-15T21:21:08.462Z,12.32
2023-07-15T21:23:35.848Z,12.18
2023-07-15T21:26:07.133Z,11.30
2023-07-15T21:28:41.320Z,11.10
2023-07-15T21:31:08.752Z,10.15
2023-07-15T21:33:36.724Z,9.13
2023-07-15T21:36:04.906Z,11.00
2023-07-15T21:38:32.164Z,9.43
2023-07-15T21:40:59.409Z,10.68
2023-07-15T21:43:26.869Z,9.82
2023-07-15T21:45:54.145Z,12.68
2023-07-15T21:48:22.077Z,11.40
2023-07-15T21:50:49.501Z,12.75
2023-07-15T21:53:18.576Z,11.48
2023-07-15T21:55:45.797Z,12.95
2023-07-15T21:58:13.102Z,14.00
2023-07-15T22:00:40.251Z,11.32
2023-07-15T22:03:07.558Z,10.80
2023-07-15T22:05:34.875Z,9.52
2023-07-15T22:08:02.098Z,11.60
2023-07-15T22:10:29.518Z,11.82
2023-07-15T22:12:56.757Z,11.48
2023-07-15T22:15:24.178Z,17.42
2023-07-15T22:17:51.618Z,9.80
2023-07-15T22:20:18.982Z,11.63
2023-07-15T22:22:46.216Z,10.70
2023-07-15T22:25:13.601Z,9.65
2023-07-15T22:27:41.413Z,10.43
2023-07-15T22:30:10.902Z,12.07
2023-07-15T22:32:38.196Z,12.23
2023-07-15T22:35:06.074Z,15.32
2023-07-15T22:40:00.878Z,10.57
2023-07-15T22:42:28.047Z,11.57
2023-07-15T22:44:55.280Z,12.27
2023-07-15T22:47:22.498Z,15.50
2023-07-15T22:49:49.779Z,11.02
2023-07-15T22:52:16.989Z,11.75
2023-07-15T22:54:44.269Z,9.07
2023-07-15T22:57:11.624Z,14.95
2023-07-15T22:59:38.927Z,11.25
2023-07-15T23:02:06.209Z,11.50
2023-07-15T23:04:33.501Z,11.93
2023-07-15T23:07:03.024Z,13.45
2023-07-15T23:09:30.341Z,10.88
2023-07-15T23:11:57.697Z,13.77
2023-07-15T23:14:24.877Z,11.82
2023-07-15T23:16:52.115Z,12.13
2023-07-15T23:19:19.418Z,13.43
2023-07-15T23:21:46.717Z,13.75
2023-07-15T23:24:14.056Z,11.77
2023-07-15T23:26:42.369Z,11.88
2023-07-15T23:29:09.597Z,12.77
2023-07-15T23:31:36.760Z,12.15
2023-07-15T23:34:03.922Z,13.68
2023-07-15T23:36:31.144Z,12.65
2023-07-15T23:38:58.323Z,12.38
2023-07-15T23:41:25.516Z,11.95
2023-07-15T23:43:52.711Z,13.10
2023-07-15T23:46:20.015Z,11.63
2023-07-15T23:48:47.345Z,11.52
2023-07-15T23:51:14.801Z,10.85
2023-07-15T23:53:41.982Z,14.15
2023-07-15T23:56:09.203Z,11.48
2023-07-15T23:58:36.456Z,12.32
